Time;durP1;ratioP1;P1;durP2;ratioP2;P2;SDS_P1;SDS_P2;PMS_P1;PMS_P2;Temp;Humidity;BMP_temperature;BMP_pressure;BME280_temperature;BME280_humidity;BME280_pressure;Samples;Min_cycle;Max_cycle;Signal;HPM_P1;HPM_P2
2024/01/02 00:01:27;;;;;;;694.08;642.58;;;5.20;99.90;;;;;;5045152;28;20521;-80
2024/01/02 00:03:53;;;;;;;684.42;633.80;;;5.10;99.90;;;;;;5045671;28;20041;-80
2024/01/02 00:06:18;;;;;;;649.25;602.22;;;5.20;99.90;;;;;;5043749;28;20140;-80
2024/01/02 00:08:44;;;;;;;662.53;613.08;;;5.10;99.90;;;;;;5045407;28;20044;-80
2024/01/02 00:11:10;;;;;;;675.42;625.20;;;5.20;99.90;;;;;;5046540;28;20048;-80
2024/01/02 00:13:36;;;;;;;697.13;644.85;;;5.10;99.90;;;;;;5046099;28;20583;-80
2024/01/02 00:16:02;;;;;;;687.83;636.90;;;5.10;99.90;;;;;;5044962;28;20103;-80
2024/01/02 00:18:28;;;;;;;645.30;597.70;;;5.10;99.90;;;;;;5046618;28;20076;-80
2024/01/02 00:20:53;;;;;;;664.20;615.22;;;5.10;99.90;;;;;;5044226;28;20055;-80
2024/01/02 00:23:19;;;;;;;674.22;624.72;;;5.10;99.90;;;;;;5044675;28;20049;-80
2024/01/02 00:25:45;;;;;;;703.80;650.67;;;5.20;99.90;;;;;;5045600;28;20579;-80
2024/01/02 00:28:11;;;;;;;661.55;612.33;;;5.20;99.90;;;;;;5044317;28;20052;-80
2024/01/02 00:30:39;;;;;;;652.63;604.22;;;5.20;99.90;;;;;;5045434;28;20048;-80
2024/01/02 00:33:06;;;;;;;719.97;665.25;;;5.20;99.90;;;;;;5045461;28;20053;-80
2024/01/02 00:35:32;;;;;;;751.38;692.65;;;5.20;99.90;;;;;;5044179;28;20480;-80
2024/01/02 00:37:57;;;;;;;654.22;606.35;;;5.20;99.90;;;;;;5044922;28;20060;-80
2024/01/02 00:40:23;;;;;;;645.60;598.03;;;5.30;99.90;;;;;;5047942;28;20063;-80
2024/01/02 00:42:49;;;;;;;628.65;582.70;;;5.30;99.90;;;;;;5048294;28;20052;-81
2024/01/02 00:45:15;;;;;;;681.15;630.45;;;5.30;99.90;;;;;;5049099;28;20044;-80
2024/01/02 00:47:40;;;;;;;738.42;681.50;;;5.20;99.90;;;;;;5040229;28;20110;-80
2024/01/02 00:50:06;;;;;;;662.75;613.60;;;5.30;99.90;;;;;;5045189;28;20041;-80
2024/01/02 00:52:34;;;;;;;706.45;652.67;;;5.30;99.90;;;;;;5064172;28;20076;-80
2024/01/02 00:55:01;;;;;;;700.30;647.60;;;5.30;99.90;;;;;;5048428;28;20124;-80
2024/01/02 00:57:27;;;;;;;644.38;596.95;;;5.30;99.90;;;;;;5048209;28;20057;-80
2024/01/02 00:59:52;;;;;;;689.85;638.63;;;5.30;99.90;;;;;;5050701;28;20060;-80
2024/01/02 01:02:18;;;;;;;643.40;596.08;;;5.30;99.90;;;;;;5031635;28;20087;-80
2024/01/02 01:04:45;;;;;;;652.00;603.58;;;5.40;99.90;;;;;;5047970;28;20049;-80
2024/01/02 01:07:11;;;;;;;791.15;728.85;;;5.40;99.90;;;;;;5049596;28;20063;-80
2024/01/02 01:09:38;;;;;;;664.67;615.25;;;5.40;99.90;;;;;;5047419;28;20073;-80
2024/01/02 01:12:04;;;;;;;670.83;621.35;;;5.40;99.90;;;;;;5049192;28;20053;-80
2024/01/02 01:14:30;;;;;;;683.67;633.90;;;5.40;99.90;;;;;;5047884;28;20045;-80
2024/01/02 01:16:56;;;;;;;714.92;661.22;;;5.40;99.90;;;;;;5049513;28;20102;-80
2024/01/02 01:19:21;;;;;;;678.45;627.60;;;5.40;99.90;;;;;;5048468;28;20056;-80
2024/01/02 01:21:47;;;;;;;660.42;612.13;;;5.40;99.90;;;;;;5047538;28;20056;-80
2024/01/02 01:24:13;;;;;;;702.38;649.78;;;5.40;99.90;;;;;;5047273;28;20472;-80
2024/01/02 01:26:39;;;;;;;661.53;613.20;;;5.40;99.90;;;;;;5049827;28;20055;-80
2024/01/02 01:29:04;;;;;;;667.25;618.05;;;5.50;99.90;;;;;;5048369;28;20041;-80
2024/01/02 01:31:30;;;;;;;701.67;649.65;;;5.40;99.90;;;;;;5030514;28;20064;-79
2024/01/02 01:33:56;;;;;;;685.08;634.28;;;5.40;99.90;;;;;;5047671;28;20041;-80
2024/01/02 01:36:22;;;;;;;698.95;647.30;;;5.40;99.90;;;;;;5046993;28;20055;-80
2024/01/02 01:38:48;;;;;;;716.17;662.80;;;5.40;99.90;;;;;;5048762;28;20041;-80
2024/01/02 01:41:13;;;;;;;703.90;650.75;;;5.70;99.90;;;;;;5037655;28;20508;-80
2024/01/02 01:43:39;;;;;;;699.05;647.03;;;5.40;99.90;;;;;;5037249;28;20033;-80
2024/01/02 01:46:06;;;;;;;715.38;661.85;;;5.40;99.90;;;;;;5034017;28;20062;-80
2024/01/02 01:48:33;;;;;;;713.65;660.60;;;5.40;99.90;;;;;;5031800;28;20052;-80
2024/01/02 01:50:59;;;;;;;682.53;632.22;;;5.40;99.90;;;;;;5035739;28;20053;-80
2024/01/02 01:53:25;;;;;;;689.90;638.35;;;5.40;99.90;;;;;;5033428;28;20119;-80
2024/01/02 01:55:51;;;;;;;683.75;633.28;;;5.40;99.90;;;;;;5049084;28;20045;-80
2024/01/02 01:58:17;;;;;;;676.58;626.67;;;5.50;99.90;;;;;;5036065;28;20052;-80
2024/01/02 02:00:44;;;;;;;684.60;633.45;;;5.60;99.90;;;;;;5036023;28;20118;-80
2024/01/02 02:03:11;;;;;;;687.13;636.03;;;5.40;99.90;;;;;;5048007;28;20124;-80
2024/01/02 02:05:36;;;;;;;728.67;674.38;;;5.40;99.90;;;;;;5048202;28;20055;-80
2024/01/02 02:08:02;;;;;;;723.78;669.80;;;5.40;99.90;;;;;;5063129;28;20136;-80
2024/01/02 02:10:29;;;;;;;741.75;684.95;;;5.50;99.90;;;;;;5048180;28;20872;-80
2024/01/02 02:12:56;;;;;;;726.92;672.75;;;5.50;99.90;;;;;;5048069;28;20048;-80
2024/01/02 02:15:22;;;;;;;724.72;670.60;;;5.50;99.90;;;;;;5048009;28;20072;-80
2024/01/02 02:17:47;;;;;;;712.58;659.92;;;5.50;99.90;;;;;;5046746;28;20083;-80
2024/01/02 02:20:13;;;;;;;703.85;651.55;;;5.50;99.90;;;;;;5046594;28;20055;-80
2024/01/02 02:22:49;;;;;;;725.80;671.50;;;5.50;99.90;;;;;;5045591;28;20052;-80
2024/01/02 02:25:15;;;;;;;739.25;683.45;;;5.50;99.90;;;;;;5046508;28;20061;-80
2024/01/02 02:27:41;;;;;;;724.03;669.55;;;5.60;99.90;;;;;;5045870;28;20052;-80
2024/01/02 02:30:07;;;;;;;703.97;651.28;;;5.50;99.90;;;;;;5048505;28;20122;-80
2024/01/02 02:32:33;;;;;;;733.85;678.28;;;5.50;99.90;;;;;;5047568;28;20401;-80
2024/01/02 02:34:59;;;;;;;728.45;673.38;;;5.50;99.90;;;;;;5047970;28;20488;-80
2024/01/02 02:37:24;;;;;;;755.70;698.97;;;5.50;99.90;;;;;;5044533;28;20053;-80
2024/01/02 02:39:50;;;;;;;728.00;673.95;;;5.60;99.90;;;;;;5046737;28;20132;-80
2024/01/02 02:42:16;;;;;;;734.05;679.17;;;5.60;99.90;;;;;;5047132;28;20037;-80
2024/01/02 02:44:43;;;;;;;764.25;705.70;;;5.60;99.90;;;;;;5062519;28;20477;-80
2024/01/02 02:47:09;;;;;;;749.03;691.78;;;5.60;99.90;;;;;;5043898;28;20103;-80
2024/01/02 02:49:36;;;;;;;769.95;711.35;;;5.60;99.90;;;;;;5038123;28;20270;-80
2024/01/02 02:52:02;;;;;;;769.00;709.47;;;5.60;99.90;;;;;;5047227;28;20428;-80
2024/01/02 02:54:28;;;;;;;760.90;703.28;;;5.60;99.90;;;;;;5045053;28;20440;-80
2024/01/02 02:56:54;;;;;;;780.40;720.63;;;5.60;99.90;;;;;;5046256;28;20041;-80
2024/01/02 02:59:20;;;;;;;750.95;694.20;;;5.70;99.90;;;;;;5046092;28;20116;-80
2024/01/02 03:01:45;;;;;;;776.65;717.05;;;5.70;99.90;;;;;;5045180;28;20060;-80
2024/01/02 03:04:11;;;;;;;749.35;691.78;;;5.80;99.90;;;;;;5045129;28;20045;-80
2024/01/02 03:06:37;;;;;;;753.53;696.10;;;5.70;99.90;;;;;;5040253;28;20052;-80
2024/01/02 03:09:03;;;;;;;791.53;731.42;;;5.70;99.90;;;;;;5030278;28;20179;-80
2024/01/02 03:11:29;;;;;;;750.88;694.28;;;5.70;99.90;;;;;;5040294;28;20501;-80
2024/01/02 03:13:55;;;;;;;779.10;719.63;;;5.70;99.90;;;;;;5046042;28;20489;-80
2024/01/02 03:16:23;;;;;;;757.65;700.15;;;5.70;99.90;;;;;;5045019;28;20511;-80
2024/01/02 03:18:48;;;;;;;780.53;720.83;;;5.70;99.90;;;;;;5032709;28;20098;-80
2024/01/02 03:21:14;;;;;;;784.70;724.17;;;5.70;99.90;;;;;;5038238;28;20152;-79
2024/01/02 03:23:40;;;;;;;787.92;727.47;;;5.80;99.90;;;;;;5046197;28;20576;-80
2024/01/02 03:26:06;;;;;;;784.70;723.72;;;5.80;99.90;;;;;;5045600;28;20508;-80
2024/01/02 03:28:32;;;;;;;791.00;730.83;;;5.80;99.90;;;;;;5045319;28;20086;-80
2024/01/02 03:30:58;;;;;;;761.58;704.08;;;5.70;99.90;;;;;;5046162;28;20051;-80
2024/01/02 03:33:24;;;;;;;781.05;721.03;;;5.70;99.90;;;;;;5045738;28;20041;-79
2024/01/02 03:35:49;;;;;;;783.08;722.78;;;5.80;99.90;;;;;;5039004;28;20052;-80
2024/01/02 03:38:15;;;;;;;748.00;690.55;;;5.80;99.90;;;;;;5028596;28;20052;-80
2024/01/02 03:40:41;;;;;;;768.58;709.00;;;5.80;99.90;;;;;;5042159;28;20357;-80
2024/01/02 03:43:07;;;;;;;758.35;701.88;;;5.80;99.90;;;;;;5047004;28;20041;-80
2024/01/02 03:45:33;;;;;;;741.15;684.30;;;5.80;99.90;;;;;;5046399;28;20512;-80
2024/01/02 03:48:00;;;;;;;744.50;688.25;;;5.80;99.90;;;;;;5034895;28;20045;-80
2024/01/02 03:50:26;;;;;;;752.25;695.70;;;5.80;99.90;;;;;;5043060;28;20037;-80
2024/01/02 03:52:51;;;;;;;846.85;775.53;;;5.80;99.90;;;;;;5044206;28;20515;-80
2024/01/02 03:55:17;;;;;;;795.47;734.60;;;5.80;99.90;;;;;;5044875;28;20115;-80
2024/01/02 03:57:43;;;;;;;778.30;718.67;;;5.80;99.90;;;;;;5045201;28;20059;-80
2024/01/02 04:00:10;;;;;;;763.80;705.47;;;5.80;99.90;;;;;;5045464;28;20045;-80
2024/01/02 04:02:35;;;;;;;749.78;693.78;;;5.80;99.90;;;;;;5045479;28;20088;-80
2024/01/02 04:05:03;;;;;;;761.15;704.17;;;5.90;99.90;;;;;;5045055;28;20568;-80
2024/01/02 04:07:29;;;;;;;772.92;713.28;;;5.80;99.90;;;;;;5043917;28;20385;-80
2024/01/02 04:09:55;;;;;;;764.15;706.13;;;5.90;99.90;;;;;;5045575;28;20056;-80
2024/01/02 04:12:21;;;;;;;775.55;717.25;;;5.90;99.90;;;;;;5045973;28;20077;-79
2024/01/02 04:14:46;;;;;;;761.28;704.13;;;5.90;99.90;;;;;;5030448;28;20055;-80
2024/01/02 04:17:12;;;;;;;780.78;721.30;;;5.90;99.90;;;;;;5050675;28;20053;-80
2024/01/02 04:19:38;;;;;;;774.70;716.25;;;5.90;99.90;;;;;;5035240;28;20132;-80
2024/01/02 04:22:04;;;;;;;763.28;705.78;;;6.00;99.90;;;;;;5049731;28;20041;-79
2024/01/02 04:24:30;;;;;;;765.50;707.30;;;6.20;99.90;;;;;;5048805;28;20045;-80
2024/01/02 04:26:56;;;;;;;766.22;707.90;;;5.90;99.90;;;;;;5042571;28;20053;-80
2024/01/02 04:29:22;;;;;;;777.58;717.92;;;5.90;99.90;;;;;;5034684;28;20128;-80
2024/01/02 04:31:47;;;;;;;792.17;729.60;;;5.90;99.90;;;;;;5082503;28;20052;-80
2024/01/02 04:34:13;;;;;;;827.33;761.78;;;5.90;99.90;;;;;;5048302;28;20408;-79
2024/01/02 04:36:41;;;;;;;777.88;717.45;;;6.00;99.90;;;;;;5049598;28;20053;-80
2024/01/02 04:39:07;;;;;;;768.67;710.10;;;5.90;99.90;;;;;;5050876;28;20047;-80
2024/01/02 04:41:33;;;;;;;761.47;704.75;;;5.90;99.90;;;;;;5064642;28;20423;-80
2024/01/02 04:43:59;;;;;;;778.40;719.90;;;5.90;99.90;;;;;;5048722;28;20051;-80
2024/01/02 04:46:27;;;;;;;751.25;694.60;;;6.00;99.90;;;;;;5048584;28;20169;-80
2024/01/02 04:48:54;;;;;;;742.92;687.30;;;5.90;99.90;;;;;;5035925;28;20457;-80
2024/01/02 04:51:19;;;;;;;787.17;727.08;;;5.90;99.90;;;;;;5047781;28;20053;-80
2024/01/02 04:53:45;;;;;;;773.22;714.50;;;6.00;99.90;;;;;;5048380;28;20102;-80
2024/01/02 04:56:11;;;;;;;756.45;700.03;;;6.00;99.90;;;;;;5049207;28;20052;-80
2024/01/02 04:58:37;;;;;;;779.40;720.22;;;6.00;99.90;;;;;;5048541;28;20045;-80
2024/01/02 05:01:03;;;;;;;748.42;692.53;;;6.10;99.90;;;;;;5047860;28;20053;-80
2024/01/02 05:03:29;;;;;;;755.40;698.53;;;6.00;99.90;;;;;;5061311;28;20060;-80
2024/01/02 05:05:55;;;;;;;743.60;687.65;;;6.00;99.90;;;;;;5038014;28;20514;-80
2024/01/02 05:08:21;;;;;;;775.03;716.20;;;6.00;99.90;;;;;;5047584;28;20099;-80
2024/01/02 05:10:46;;;;;;;760.30;703.40;;;6.00;99.90;;;;;;5048177;28;20131;-80
2024/01/02 05:13:12;;;;;;;773.00;714.92;;;6.00;99.90;;;;;;5047535;28;20056;-80
2024/01/02 05:15:38;;;;;;;766.58;708.17;;;5.90;99.90;;;;;;5049329;28;20120;-80
2024/01/02 05:18:04;;;;;;;790.88;729.75;;;6.00;99.90;;;;;;5050193;28;20473;-79
2024/01/02 05:20:30;;;;;;;766.30;707.85;;;6.00;99.90;;;;;;5049913;28;20088;-80
2024/01/02 05:22:59;;;;;;;767.40;709.53;;;6.00;99.90;;;;;;5048557;28;20931;-80
2024/01/02 05:25:25;;;;;;;858.60;786.30;;;6.00;99.90;;;;;;5048454;28;20053;-79
2024/01/02 05:27:51;;;;;;;749.08;690.88;;;6.00;99.90;;;;;;5048099;28;20507;-80
2024/01/02 05:30:17;;;;;;;728.33;673.72;;;6.00;99.90;;;;;;5047553;28;20082;-79
2024/01/02 05:32:42;;;;;;;803.55;741.55;;;6.00;99.90;;;;;;5047525;28;20045;-80
2024/01/02 05:35:08;;;;;;;744.22;688.65;;;6.00;99.90;;;;;;5049787;28;20052;-79
2024/01/02 05:37:34;;;;;;;816.63;752.13;;;6.00;99.90;;;;;;5045344;28;20140;-79
2024/01/02 05:39:59;;;;;;;762.42;705.17;;;6.10;99.90;;;;;;5049835;28;20049;-80
2024/01/02 05:42:25;;;;;;;747.45;691.35;;;6.00;99.90;;;;;;5048325;28;20044;-79
2024/01/02 05:44:51;;;;;;;765.72;707.65;;;6.00;99.90;;;;;;5047341;28;20043;-80
2024/01/02 05:47:16;;;;;;;793.95;733.33;;;6.00;99.90;;;;;;5043782;28;20051;-79
2024/01/02 05:49:42;;;;;;;759.63;703.00;;;6.00;99.90;;;;;;5040819;28;20488;-79
2024/01/02 05:52:08;;;;;;;754.63;697.83;;;6.00;99.90;;;;;;5047398;28;20056;-80
2024/01/02 05:54:33;;;;;;;772.60;713.20;;;6.00;99.90;;;;;;5047549;28;20511;-79
2024/01/02 05:56:59;;;;;;;786.13;726.50;;;6.00;99.90;;;;;;5047249;28;20447;-79
2024/01/02 05:59:25;;;;;;;730.67;676.60;;;6.00;99.90;;;;;;5046651;28;20072;-79
2024/01/02 06:01:51;;;;;;;737.30;682.60;;;6.00;99.90;;;;;;5048519;28;20094;-79
2024/01/02 06:04:16;;;;;;;749.05;692.88;;;6.00;99.90;;;;;;5036869;28;20041;-80
2024/01/02 06:06:42;;;;;;;736.75;681.40;;;6.00;99.90;;;;;;5042824;28;20049;-79
2024/01/02 06:09:08;;;;;;;756.00;699.58;;;6.00;99.90;;;;;;5055001;28;20088;-80
2024/01/02 06:11:34;;;;;;;771.60;713.60;;;6.00;99.90;;;;;;5025128;28;20059;-79
2024/01/02 06:13:59;;;;;;;741.15;685.88;;;6.00;99.90;;;;;;5047167;28;20045;-79
2024/01/02 06:16:25;;;;;;;760.10;703.78;;;6.10;99.90;;;;;;5046680;28;20049;-80
2024/01/02 06:18:51;;;;;;;767.72;710.13;;;6.00;99.90;;;;;;5048166;28;20076;-79
2024/01/02 06:21:17;;;;;;;761.38;704.35;;;6.00;99.90;;;;;;5046964;28;20083;-79
2024/01/02 06:23:43;;;;;;;726.85;672.60;;;6.00;99.90;;;;;;5046887;28;20056;-79
2024/01/02 06:26:08;;;;;;;762.03;704.90;;;6.00;99.90;;;;;;5045418;28;20158;-79
2024/01/02 06:28:34;;;;;;;794.15;734.03;;;6.00;99.90;;;;;;5047118;28;20063;-79
2024/01/02 06:31:05;;;;;;;806.83;743.08;;;6.00;99.90;;;;;;5046449;28;20045;-80
2024/01/02 06:33:31;;;;;;;764.55;707.38;;;6.00;99.90;;;;;;5047382;28;20072;-79
2024/01/02 06:35:57;;;;;;;750.80;695.13;;;6.00;99.90;;;;;;5043681;28;20052;-79
2024/01/02 06:38:23;;;;;;;771.40;713.33;;;6.20;99.90;;;;;;5043328;28;20413;-80
2024/01/02 06:40:48;;;;;;;867.30;797.38;;;6.10;99.90;;;;;;5047224;28;20415;-79
2024/01/02 06:43:14;;;;;;;789.70;729.65;;;6.10;99.90;;;;;;5047591;28;20055;-79
2024/01/02 06:45:40;;;;;;;715.90;662.78;;;6.10;99.90;;;;;;5029678;28;20055;-79
2024/01/02 06:48:06;;;;;;;796.75;733.53;;;6.00;99.90;;;;;;5035469;28;20088;-79
2024/01/02 06:50:32;;;;;;;770.97;712.83;;;6.00;99.90;;;;;;5046243;28;20610;-79
2024/01/02 06:53:00;;;;;;;766.78;708.50;;;6.10;99.90;;;;;;5045859;28;20049;-80
2024/01/02 06:55:26;;;;;;;716.72;664.17;;;6.00;99.90;;;;;;5044488;28;20040;-79
2024/01/02 06:57:52;;;;;;;732.15;678.30;;;6.10;99.90;;;;;;5043897;28;20068;-79
2024/01/02 07:00:18;;;;;;;775.15;716.15;;;6.10;99.90;;;;;;5045831;28;20083;-80
2024/01/02 07:02:43;;;;;;;808.67;746.97;;;6.00;99.90;;;;;;5045290;28;20120;-80
2024/01/02 07:05:14;;;;;;;779.33;719.78;;;6.00;99.90;;;;;;5046180;28;20041;-79
2024/01/02 07:07:41;;;;;;;754.55;698.20;;;6.10;99.90;;;;;;5043587;28;20071;-80
2024/01/02 07:10:07;;;;;;;744.58;689.13;;;6.10;99.90;;;;;;5045586;28;20128;-80
2024/01/02 07:12:33;;;;;;;768.75;710.55;;;6.10;99.90;;;;;;5044519;28;20047;-80
2024/01/02 07:14:59;;;;;;;764.60;707.42;;;6.10;99.90;;;;;;5045272;28;20049;-80
2024/01/02 07:17:25;;;;;;;777.38;719.00;;;6.10;99.90;;;;;;5044445;28;20153;-80
2024/01/02 07:19:51;;;;;;;746.63;690.60;;;6.20;99.90;;;;;;5046916;28;20460;-81
2024/01/02 07:22:18;;;;;;;730.65;676.17;;;6.10;99.90;;;;;;5043736;28;20084;-80
2024/01/02 07:24:44;;;;;;;737.05;681.75;;;6.10;99.90;;;;;;5041004;28;20045;-80
2024/01/02 07:27:10;;;;;;;774.65;716.13;;;6.10;99.90;;;;;;5045574;28;20121;-79
2024/01/02 07:29:36;;;;;;;768.70;711.03;;;6.20;99.90;;;;;;5044684;28;20079;-80
2024/01/02 07:32:01;;;;;;;774.15;715.60;;;6.10;99.90;;;;;;5045756;28;20053;-79
2024/01/02 07:34:27;;;;;;;739.28;683.78;;;6.20;99.90;;;;;;5045462;28;20160;-80
2024/01/02 07:36:53;;;;;;;731.85;678.20;;;6.30;99.90;;;;;;5041400;28;20044;-81
2024/01/02 07:39:18;;;;;;;734.42;679.65;;;6.20;99.90;;;;;;5044946;28;20638;-81
2024/01/02 07:41:45;;;;;;;744.85;689.47;;;6.30;99.90;;;;;;5028187;28;20044;-79
2024/01/02 07:44:10;;;;;;;765.50;708.17;;;6.20;99.90;;;;;;5045873;28;20460;-79
2024/01/02 07:46:36;;;;;;;742.05;687.67;;;6.20;99.90;;;;;;5045754;28;20164;-79
2024/01/02 07:49:02;;;;;;;787.30;727.90;;;6.20;99.90;;;;;;5044169;28;20626;-79
2024/01/02 07:51:28;;;;;;;779.42;720.53;;;6.30;99.90;;;;;;5043042;28;20115;-79
2024/01/02 07:53:54;;;;;;;768.60;711.20;;;6.20;99.90;;;;;;5044502;28;20036;-79
2024/01/02 07:56:21;;;;;;;777.63;718.85;;;6.30;99.90;;;;;;5044418;28;20052;-80
2024/01/02 07:58:46;;;;;;;763.17;706.00;;;6.20;99.90;;;;;;5043796;28;20096;-78
2024/01/02 08:01:13;;;;;;;775.10;716.92;;;6.30;99.90;;;;;;5043540;28;20072;-79
2024/01/02 08:03:40;;;;;;;800.25;738.92;;;6.40;99.90;;;;;;5046021;28;20048;-81
2024/01/02 08:06:06;;;;;;;786.47;726.90;;;6.30;99.90;;;;;;5042966;28;20045;-80
2024/01/02 08:08:31;;;;;;;761.88;704.70;;;6.40;99.90;;;;;;5028786;28;20094;-81
2024/01/02 08:10:57;;;;;;;772.08;713.17;;;6.30;99.90;;;;;;5044467;28;20040;-81
2024/01/02 08:13:23;;;;;;;786.80;726.90;;;6.40;99.90;;;;;;5045191;28;20049;-81
2024/01/02 08:15:48;;;;;;;769.08;711.33;;;6.50;99.90;;;;;;5045217;28;20558;-80
2024/01/02 08:18:14;;;;;;;781.88;723.03;;;6.40;99.90;;;;;;5044109;28;20056;-81
2024/01/02 08:20:40;;;;;;;759.30;702.20;;;6.50;99.90;;;;;;5046632;28;20085;-81
2024/01/02 08:23:06;;;;;;;794.38;733.75;;;6.60;99.90;;;;;;5045173;28;20480;-81
2024/01/02 08:25:33;;;;;;;823.90;760.47;;;6.50;99.90;;;;;;5044073;28;20033;-80
2024/01/02 08:27:59;;;;;;;814.85;752.03;;;6.60;99.90;;;;;;5046069;28;20563;-80
2024/01/02 08:30:25;;;;;;;815.80;752.25;;;6.70;99.90;;;;;;5044240;28;20056;-80
2024/01/02 08:32:51;;;;;;;795.70;735.60;;;6.70;99.90;;;;;;5043925;28;20392;-80
2024/01/02 08:35:16;;;;;;;820.05;757.00;;;6.70;99.90;;;;;;5044548;28;20053;-82
2024/01/02 08:37:43;;;;;;;813.63;751.70;;;6.70;99.90;;;;;;5043772;28;20318;-79
2024/01/02 08:40:10;;;;;;;796.00;735.05;;;6.90;99.90;;;;;;5044291;28;20049;-78
2024/01/02 08:42:36;;;;;;;789.90;730.15;;;6.80;99.90;;;;;;5044224;28;20128;-78
2024/01/02 08:45:04;;;;;;;767.60;708.70;;;6.90;99.90;;;;;;5045397;28;20052;-79
2024/01/02 08:47:30;;;;;;;770.40;712.35;;;6.90;99.90;;;;;;5043237;28;20040;-78
2024/01/02 08:49:56;;;;;;;786.42;727.03;;;6.90;99.90;;;;;;5034694;28;20148;-78
2024/01/02 08:52:21;;;;;;;818.92;756.53;;;7.00;99.90;;;;;;5044099;28;20048;-78
2024/01/02 08:54:47;;;;;;;789.67;729.92;;;7.00;99.90;;;;;;5043822;28;20103;-77
2024/01/02 08:57:13;;;;;;;798.83;737.65;;;7.10;99.90;;;;;;5044577;28;20056;-78
2024/01/02 08:59:38;;;;;;;808.30;746.90;;;7.00;99.90;;;;;;5044338;28;20049;-78
2024/01/02 09:02:05;;;;;;;814.03;750.92;;;7.20;99.90;;;;;;5046070;28;20041;-78
2024/01/02 09:04:31;;;;;;;843.30;776.47;;;7.30;99.90;;;;;;5048122;28;20147;-78
2024/01/02 09:06:56;;;;;;;820.67;756.70;;;7.40;99.90;;;;;;5047107;28;20143;-78
2024/01/02 09:09:23;;;;;;;843.42;777.55;;;7.40;99.90;;;;;;5030957;28;20051;-78
2024/01/02 09:11:48;;;;;;;833.33;767.33;;;7.60;99.90;;;;;;5047655;28;20080;-78
2024/01/02 09:14:15;;;;;;;822.78;758.45;;;7.60;99.90;;;;;;5047331;28;20083;-78
2024/01/02 09:16:42;;;;;;;853.40;785.15;;;7.70;99.90;;;;;;5048069;28;20064;-78
2024/01/02 09:19:08;;;;;;;834.17;767.75;;;7.80;99.90;;;;;;5049696;28;20060;-78
2024/01/02 09:21:34;;;;;;;861.90;792.75;;;7.90;99.90;;;;;;5046557;28;20488;-78
2024/01/02 09:23:59;;;;;;;861.25;791.17;;;7.90;99.90;;;;;;5047683;28;20088;-78
2024/01/02 09:26:26;;;;;;;846.53;778.78;;;8.00;99.90;;;;;;5081247;28;20057;-78
2024/01/02 09:28:53;;;;;;;846.03;777.70;;;8.20;99.90;;;;;;5046934;28;20049;-78
2024/01/02 09:31:19;;;;;;;806.95;743.80;;;8.20;99.90;;;;;;5037793;28;20037;-79
2024/01/02 09:33:46;;;;;;;809.83;746.72;;;8.30;99.90;;;;;;5056031;28;20050;-78
2024/01/02 09:36:14;;;;;;;867.25;796.80;;;8.40;99.90;;;;;;5039364;28;20060;-78
2024/01/02 09:38:40;;;;;;;821.35;756.28;;;8.50;99.90;;;;;;5036405;28;20056;-78
2024/01/02 09:41:09;;;;;;;825.60;760.92;;;8.50;99.90;;;;;;5047276;28;20151;-78
2024/01/02 09:43:58;;;;;;;882.38;810.65;;;8.50;99.90;;;;;;5046614;28;20056;-78
2024/01/02 09:46:39;;;;;;;910.53;833.47;;;8.70;99.90;;;;;;5047081;28;20053;-79
2024/01/02 09:49:18;;;;;;;836.40;770.33;;;8.90;99.90;;;;;;5034913;28;20051;-79
2024/01/02 09:52:17;;;;;;;833.55;766.80;;;8.80;99.90;;;;;;5047747;28;20041;-80
2024/01/02 09:54:53;;;;;;;814.72;749.78;;;9.00;99.90;;;;;;5049245;28;20107;-80
2024/01/02 09:57:25;;;;;;;856.47;785.53;;;9.00;99.90;;;;;;5062794;28;20064;-79
2024/01/02 10:00:00;;;;;;;863.63;790.88;;;9.10;99.90;;;;;;5031125;28;20106;-79
2024/01/02 10:02:30;;;;;;;818.33;754.25;;;9.20;99.90;;;;;;5046982;28;20567;-79
2024/01/02 10:05:08;;;;;;;818.85;753.10;;;9.10;99.90;;;;;;5046092;28;20053;-80
2024/01/02 10:07:38;;;;;;;782.33;720.38;;;9.10;99.90;;;;;;5047834;28;20045;-79
2024/01/02 10:10:15;;;;;;;724.60;669.47;;;9.20;99.90;;;;;;5033919;28;20049;-79
2024/01/02 10:13:00;;;;;;;758.42;700.80;;;9.30;99.90;;;;;;5047104;28;20183;-79
2024/01/02 10:15:37;;;;;;;757.47;699.72;;;9.40;99.90;;;;;;5048127;28;20037;-79
2024/01/02 10:18:17;;;;;;;740.10;683.78;;;9.30;99.90;;;;;;5029305;28;20059;-79
2024/01/02 10:20:48;;;;;;;732.95;677.40;;;9.40;99.90;;;;;;5048221;28;20037;-79
2024/01/02 10:24:02;;;;;;;721.70;667.55;;;9.40;99.90;;;;;;5047441;28;20476;-79
2024/01/02 10:26:32;;;;;;;756.88;697.30;;;9.40;99.90;;;;;;5043718;28;20461;-79
2024/01/02 10:29:04;;;;;;;748.63;693.00;;;9.50;99.90;;;;;;5037688;28;20095;-80
2024/01/02 10:31:47;;;;;;;772.13;712.63;;;9.50;99.90;;;;;;5078964;28;20052;-79
2024/01/02 10:34:30;;;;;;;741.20;685.97;;;9.50;99.90;;;;;;5047846;28;20048;-79
2024/01/02 10:36:57;;;;;;;719.80;665.97;;;9.50;99.90;;;;;;5045046;28;20108;-79
2024/01/02 10:39:47;;;;;;;730.38;674.90;;;9.50;99.90;;;;;;5045935;28;20670;-80
2024/01/02 10:42:40;;;;;;;713.05;659.67;;;9.60;99.90;;;;;;5079651;28;20145;-81
2024/01/02 10:45:14;;;;;;;713.67;659.90;;;9.50;99.90;;;;;;5046262;28;20098;-82
2024/01/02 10:47:50;;;;;;;732.63;676.47;;;9.60;99.90;;;;;;5037376;28;20072;-81
2024/01/02 10:50:23;;;;;;;691.95;638.85;;;9.60;99.90;;;;;;5042697;28;20041;-81
2024/01/02 10:53:15;;;;;;;716.40;662.33;;;9.60;99.90;;;;;;5044671;28;20059;-80
2024/01/02 10:55:49;;;;;;;734.25;678.08;;;9.70;99.90;;;;;;5046377;28;20111;-80
2024/01/02 10:58:22;;;;;;;708.72;654.85;;;9.80;99.90;;;;;;5029501;28;20048;-80
2024/01/02 11:01:04;;;;;;;744.83;687.17;;;9.90;99.90;;;;;;5046746;28;20341;-80
2024/01/02 11:03:39;;;;;;;713.77;658.93;;;9.90;99.90;;;;;;5046222;28;20083;-80
2024/01/02 11:06:17;;;;;;;694.38;641.97;;;9.80;99.90;;;;;;5047111;28;20430;-80
2024/01/02 11:08:52;;;;;;;656.45;606.97;;;9.80;99.90;;;;;;5046545;28;20115;-81
2024/01/02 11:11:19;;;;;;;680.15;629.08;;;10.00;99.90;;;;;;5044230;28;20053;-81
2024/01/02 11:13:46;;;;;;;705.20;652.10;;;10.00;99.90;;;;;;5045545;28;20040;-81
2024/01/02 11:16:17;;;;;;;705.88;651.80;;;10.00;99.90;;;;;;5045179;28;20048;-80
2024/01/02 11:18:46;;;;;;;680.30;628.55;;;10.00;99.90;;;;;;5047018;28;20465;-80
2024/01/02 11:21:33;;;;;;;658.30;608.55;;;10.10;99.90;;;;;;5059947;28;20156;-80
2024/01/02 11:24:03;;;;;;;664.25;613.03;;;10.00;99.90;;;;;;5046693;28;20057;-80
2024/01/02 11:26:33;;;;;;;647.83;597.92;;;10.10;99.90;;;;;;5044574;28;20115;-80
2024/01/02 11:29:01;;;;;;;668.70;616.75;;;10.10;99.90;;;;;;5046978;28;20186;-80
2024/01/02 11:31:31;;;;;;;660.85;610.00;;;10.10;99.90;;;;;;5044392;28;20499;-80
2024/01/02 11:34:11;;;;;;;698.80;644.28;;;10.00;99.90;;;;;;5030796;28;20405;-80
2024/01/02 11:37:07;;;;;;;679.50;627.03;;;10.10;99.90;;;;;;5039753;28;20060;-80
2024/01/02 11:39:43;;;;;;;739.90;681.47;;;10.10;99.90;;;;;;5046510;28;20080;-80
2024/01/02 11:42:28;;;;;;;678.67;626.67;;;10.20;99.90;;;;;;5034548;28;20135;-81
2024/01/02 11:45:08;;;;;;;679.47;627.15;;;10.20;99.90;;;;;;5046902;28;20396;-80
2024/01/02 11:47:47;;;;;;;670.10;618.80;;;10.30;99.90;;;;;;5037495;28;20041;-80
2024/01/02 11:50:15;;;;;;;684.70;632.10;;;10.30;99.90;;;;;;5041813;28;20536;-80
2024/01/02 11:52:55;;;;;;;686.88;634.10;;;10.20;99.90;;;;;;5044477;28;20045;-80
2024/01/02 11:55:44;;;;;;;658.42;607.55;;;10.20;99.90;;;;;;5045033;28;20041;-81
2024/01/02 11:58:27;;;;;;;678.35;626.70;;;10.20;99.90;;;;;;5044363;28;20049;-80
2024/01/02 12:01:08;;;;;;;715.40;659.95;;;10.20;99.90;;;;;;5046946;28;20497;-80
2024/01/02 12:03:45;;;;;;;692.58;639.55;;;10.20;99.90;;;;;;5077215;28;20048;-80
2024/01/02 12:06:30;;;;;;;683.85;630.97;;;10.20;99.90;;;;;;5044219;28;20049;-83
2024/01/02 12:09:04;;;;;;;678.88;626.90;;;10.30;99.90;;;;;;5045741;28;20430;-83
2024/01/02 12:11:34;;;;;;;682.13;629.92;;;10.20;99.90;;;;;;5043635;28;20055;-81
2024/01/02 12:14:17;;;;;;;712.80;657.78;;;10.20;99.90;;;;;;5045681;28;20421;-81
2024/01/02 12:16:45;;;;;;;661.33;610.78;;;10.20;99.90;;;;;;5057770;28;20064;-81
2024/01/02 12:19:21;;;;;;;688.78;636.28;;;10.20;99.90;;;;;;5074379;28;20047;-81
2024/01/02 12:21:48;;;;;;;707.50;653.10;;;10.20;99.90;;;;;;5043792;28;20048;-81